createdAt,value
2023-02-11T00:00:27.277Z,74770.50
2023-02-11T00:01:02.321Z,74774.50
2023-02-11T00:01:35.954Z,74778.50
2023-02-11T00:02:10.868Z,74774.50
2023-02-11T00:02:45.502Z,74778.50
2023-02-11T00:03:19.093Z,74776.50
2023-02-11T00:03:54.187Z,74774.50
2023-02-11T00:04:26.440Z,74776.50
2023-02-11T00:04:58.907Z,74774.50
2023-02-11T00:05:33.735Z,74768.50
2023-02-11T00:06:09.533Z,74766.53
2023-02-11T00:06:41.764Z,74770.50
2023-02-11T00:07:16.589Z,74776.50
2023-02-11T00:07:49.015Z,74774.50
2023-02-11T00:08:21.233Z,74774.50
2023-02-11T00:08:53.561Z,74774.50
2023-02-11T00:09:30.905Z,74774.50
2023-02-11T00:10:08.012Z,74772.50
2023-02-11T00:10:40.231Z,74770.50
2023-02-11T00:11:16.935Z,74770.50
2023-02-11T00:11:49.157Z,74770.50
2023-02-11T00:12:21.422Z,74774.50
2023-02-11T00:12:56.244Z,74772.50
2023-02-11T00:13:28.541Z,74770.50
2023-02-11T00:14:02.524Z,74770.50
2023-02-11T00:14:37.384Z,74774.50
2023-02-11T00:15:10.622Z,74774.50
2023-02-11T00:15:42.844Z,74764.53
2023-02-11T00:16:19.826Z,74780.50
2023-02-11T00:16:52.205Z,74772.50
2023-02-11T00:17:24.531Z,74770.50
2023-02-11T00:17:59.373Z,74770.50
2023-02-11T00:18:31.646Z,74774.50
2023-02-11T00:19:05.731Z,74770.50
2023-02-11T00:19:40.679Z,74770.50
2023-02-11T00:20:12.904Z,74776.50
2023-02-11T00:20:45.135Z,74776.50
2023-02-11T00:21:22.340Z,74774.50
2023-02-11T00:21:54.601Z,74774.50
2023-02-11T00:22:26.902Z,74774.50
2023-02-11T00:23:01.806Z,74774.50
2023-02-11T00:23:34.115Z,74780.50
2023-02-11T00:24:06.983Z,74776.50
2023-02-11T00:24:41.797Z,74786.50
2023-02-11T00:25:16.628Z,74778.50
2023-02-11T00:25:49.129Z,74776.50
2023-02-11T00:26:26.083Z,74786.50
2023-02-11T00:26:58.473Z,74778.50
2023-02-11T00:27:30.914Z,74782.50
2023-02-11T00:28:05.966Z,74778.50
2023-02-11T00:28:38.231Z,74774.50
2023-02-11T00:29:10.592Z,74778.50
2023-02-11T00:29:45.419Z,74778.50
2023-02-11T00:30:17.772Z,74782.50
2023-02-11T00:30:54.992Z,74776.50
2023-02-11T00:31:30.315Z,74786.50
2023-02-11T00:32:05.326Z,74774.50
2023-02-11T00:32:37.885Z,74774.50
2023-02-11T00:33:13.441Z,74778.50
2023-02-11T00:33:46.106Z,74782.50
2023-02-11T00:34:20.963Z,74782.50
2023-02-11T00:34:53.356Z,74778.50
2023-02-11T00:35:25.642Z,74782.50
2023-02-11T00:36:00.474Z,74776.50
2023-02-11T00:36:33.128Z,74782.50
2023-02-11T00:37:05.585Z,74778.50
2023-02-11T00:37:41.415Z,74770.50
2023-02-11T00:38:16.047Z,74774.50
2023-02-11T00:38:50.019Z,74774.50
2023-02-11T00:39:25.028Z,74774.50
2023-02-11T00:39:57.247Z,74774.50
2023-02-11T00:40:32.192Z,74774.50
2023-02-11T00:41:07.482Z,74778.50
2023-02-11T00:41:39.752Z,74778.50
2023-02-11T00:42:14.998Z,74782.50
2023-02-11T00:42:49.894Z,74782.50
2023-02-11T00:43:22.146Z,74778.50
2023-02-11T00:43:56.190Z,74782.50
2023-02-11T00:44:31.087Z,74782.50
2023-02-11T00:45:04.064Z,74782.50
2023-02-11T00:45:36.318Z,74784.50
2023-02-11T00:46:11.306Z,74782.50
2023-02-11T00:46:43.738Z,74786.50
2023-02-11T00:47:16.121Z,74788.47
2023-02-11T00:47:52.118Z,74782.50
2023-02-11T00:48:24.362Z,74782.50
2023-02-11T00:48:58.023Z,74786.50
2023-02-11T00:49:32.910Z,74786.50
2023-02-11T00:50:06.448Z,74790.47
2023-02-11T00:50:38.688Z,74794.47
2023-02-11T00:51:13.798Z,74790.47
2023-02-11T00:51:46.074Z,74792.47
2023-02-11T00:52:18.312Z,74802.47
2023-02-11T00:52:53.155Z,74790.47
2023-02-11T00:53:25.433Z,74794.47
2023-02-11T00:53:57.896Z,74796.47
2023-02-11T00:54:32.765Z,74802.47
2023-02-11T00:55:05.776Z,74794.47
2023-02-11T00:55:40.937Z,74790.47
2023-02-11T00:56:15.763Z,74802.47
2023-02-11T00:56:48.030Z,74796.47
2023-02-11T00:57:22.855Z,74798.47
2023-02-11T00:57:55.547Z,74794.47
2023-02-11T00:58:30.092Z,74800.47
2023-02-11T00:59:04.982Z,74798.47
2023-02-11T00:59:37.291Z,74798.47
2023-02-11T01:00:13.910Z,74798.47
2023-02-11T01:00:48.760Z,74802.47
2023-02-11T01:01:21.028Z,74790.47
2023-02-11T01:01:53.303Z,74798.47
2023-02-11T01:02:28.135Z,74802.47
2023-02-11T01:03:00.363Z,74798.47
2023-02-11T01:03:32.685Z,74798.47
2023-02-11T01:04:07.863Z,74794.47
2023-02-11T01:04:40.114Z,74806.47
2023-02-11T01:05:12.959Z,74798.47
2023-02-11T01:05:48.093Z,74794.47
2023-02-11T01:06:20.613Z,74800.47
2023-02-11T01:06:53.064Z,74806.47
2023-02-11T01:07:27.938Z,74810.44
2023-02-11T01:08:00.424Z,74806.47
2023-02-11T01:08:35.259Z,74806.47
2023-02-11T01:09:07.534Z,74808.44
2023-02-11T01:09:40.836Z,74804.47
2023-02-11T01:10:15.823Z,74806.47
2023-02-11T01:10:57.457Z,74802.47
2023-02-11T01:11:32.298Z,74806.47
2023-02-11T01:12:04.806Z,74806.47
2023-02-11T01:12:38.103Z,74810.44
2023-02-11T01:13:13.096Z,74810.44
2023-02-11T01:13:45.994Z,74810.44
2023-02-11T01:14:18.306Z,74810.44
2023-02-11T01:14:53.284Z,74810.44
2023-02-11T01:15:25.953Z,74818.44
2023-02-11T01:15:58.410Z,74810.44
2023-02-11T01:16:30.741Z,74810.44
2023-02-11T01:17:08.059Z,74804.47
2023-02-11T01:17:40.308Z,74806.47
2023-02-11T01:18:12.852Z,74806.47
2023-02-11T01:18:45.161Z,74806.47
2023-02-11T01:19:20.085Z,74810.44
2023-02-11T01:19:52.304Z,74808.44
2023-02-11T01:20:27.768Z,74814.44
2023-02-11T01:21:02.628Z,74808.44
2023-02-11T01:21:34.905Z,74814.44
2023-02-11T01:22:07.178Z,74810.44
2023-02-11T01:22:42.015Z,74814.44
2023-02-11T01:23:14.291Z,74810.44
2023-02-11T01:23:46.771Z,74814.44
2023-02-11T01:24:21.647Z,74806.47
2023-02-11T01:24:53.871Z,74812.44
2023-02-11T01:25:26.139Z,74810.44
2023-02-11T01:26:03.600Z,74810.44
2023-02-11T01:26:35.852Z,74810.44
2023-02-11T01:27:08.190Z,74810.44
2023-02-11T01:27:43.084Z,74806.47
2023-02-11T01:28:17.455Z,74812.44
2023-02-11T01:28:49.773Z,74810.44
2023-02-11T01:29:24.960Z,74810.44
2023-02-11T01:30:00.116Z,74806.47
2023-02-11T01:30:32.503Z,74806.47
2023-02-11T01:31:07.688Z,74806.47
2023-02-11T01:31:40.030Z,74812.44
2023-02-11T01:32:12.368Z,74814.44
2023-02-11T01:32:47.209Z,74810.44
2023-02-11T01:33:19.842Z,74810.44
2023-02-11T01:33:52.100Z,74808.44
2023-02-11T01:34:26.935Z,74810.44
2023-02-11T01:34:59.172Z,74806.47
2023-02-11T01:35:31.389Z,74806.47
2023-02-11T01:36:07.997Z,74812.44
2023-02-11T01:36:40.220Z,74806.47
2023-02-11T01:37:12.439Z,74808.44
2023-02-11T01:37:47.327Z,74806.47
2023-02-11T01:38:20.854Z,74804.47
2023-02-11T01:38:53.113Z,74806.47
2023-02-11T01:39:28.546Z,74794.47
2023-02-11T01:40:01.932Z,74796.47
2023-02-11T01:40:34.284Z,74806.47
2023-02-11T01:41:14.721Z,74800.47
2023-02-11T01:41:46.994Z,74802.47
2023-02-11T01:42:21.132Z,74802.47
2023-02-11T01:42:56.043Z,74802.47
2023-02-11T01:43:31.096Z,74796.47
2023-02-11T01:44:25.002Z,74814.44
2023-02-11T01:44:58.307Z,74808.44
2023-02-11T01:46:07.959Z,74806.47
2023-02-11T01:46:40.231Z,74810.44
2023-02-11T01:47:12.561Z,74806.47
2023-02-11T01:47:47.447Z,74810.44
2023-02-11T01:48:23.025Z,74810.44
2023-02-11T01:48:57.570Z,74806.47
2023-02-11T01:49:35.354Z,74806.47
2023-02-11T01:50:07.729Z,74804.47
2023-02-11T01:50:40.675Z,74808.44
2023-02-11T01:51:16.411Z,74806.47
2023-02-11T01:51:54.688Z,74806.47
2023-02-11T01:52:30.453Z,74802.47
2023-02-11T01:53:23.112Z,74804.47
2023-02-11T01:54:10.916Z,74790.47
2023-02-11T01:54:59.921Z,74794.47
2023-02-11T01:55:47.281Z,74794.47
2023-02-11T01:56:37.807Z,74790.47
2023-02-11T01:57:26.800Z,74784.50
2023-02-11T01:58:02.085Z,74790.47
2023-02-11T01:58:37.540Z,74790.47
2023-02-11T01:59:13.420Z,74790.47
2023-02-11T01:59:53.966Z,74792.47
2023-02-11T02:00:29.552Z,74790.47
2023-02-11T02:01:03.223Z,74790.47
2023-02-11T02:01:38.462Z,74790.47
2023-02-11T02:02:13.489Z,74794.47
2023-02-11T02:02:51.249Z,74784.50
2023-02-11T02:03:27.598Z,74794.47
2023-02-11T02:04:02.346Z,74790.47
2023-02-11T02:04:39.548Z,74790.47
2023-02-11T02:05:23.345Z,74794.47
2023-02-11T02:06:00.364Z,74786.50
2023-02-11T02:06:36.477Z,74794.47
2023-02-11T02:07:14.448Z,74794.47
2023-02-11T02:07:52.671Z,74792.47
2023-02-11T02:08:32.348Z,74796.47
2023-02-11T02:09:09.837Z,74798.47
2023-02-11T02:09:45.969Z,74790.47
2023-02-11T02:10:24.173Z,74794.47
2023-02-11T02:10:58.582Z,74794.47
2023-02-11T02:11:33.446Z,74792.47
2023-02-11T02:12:08.552Z,74796.47
2023-02-11T02:12:40.805Z,74794.47
2023-02-11T02:13:13.521Z,74788.47
2023-02-11T02:13:49.355Z,74782.50
2023-02-11T02:14:21.600Z,74784.50
2023-02-11T02:15:14.779Z,74786.50
2023-02-11T02:15:50.549Z,74786.50
2023-02-11T02:16:27.562Z,74786.50
2023-02-11T02:17:02.501Z,74786.50
2023-02-11T02:17:43.126Z,74780.50
2023-02-11T02:18:32.364Z,74786.50
2023-02-11T02:19:28.184Z,74784.50
2023-02-11T02:20:21.216Z,74784.50
2023-02-11T02:21:43.397Z,74786.50
2023-02-11T02:22:40.371Z,74782.50
2023-02-11T02:23:25.153Z,74778.50
2023-02-11T02:24:44.760Z,74782.50
2023-02-11T02:25:30.029Z,74776.50
2023-02-11T02:26:41.867Z,74776.50
2023-02-11T02:27:27.440Z,74772.50
2023-02-11T02:28:15.474Z,74772.50
2023-02-11T02:29:11.801Z,74772.50
2023-02-11T02:30:04.013Z,74770.50
2023-02-11T02:30:51.304Z,74768.50
2023-02-11T02:31:39.639Z,74770.50
2023-02-11T02:32:40.044Z,74766.53
2023-02-11T02:33:25.227Z,74762.53
2023-02-11T02:34:01.592Z,74758.53
2023-02-11T02:34:38.191Z,74754.53
2023-02-11T02:35:19.462Z,74758.53
2023-02-11T02:35:59.477Z,74756.53
2023-02-11T02:36:34.857Z,74756.53
2023-02-11T02:37:15.595Z,74750.53
2023-02-11T02:37:51.289Z,74754.53
2023-02-11T02:38:26.629Z,74752.53
2023-02-11T02:39:04.616Z,74750.53
2023-02-11T02:39:37.919Z,74750.53
2023-02-11T02:40:13.400Z,74746.56
2023-02-11T02:40:50.611Z,74742.56
2023-02-11T02:41:25.516Z,74742.56
2023-02-11T02:42:00.760Z,74734.56
2023-02-11T02:42:33.056Z,74746.56
2023-02-11T02:43:05.975Z,74748.53
2023-02-11T02:43:44.552Z,74750.53
2023-02-11T02:44:16.869Z,74744.56
2023-02-11T02:44:50.623Z,74750.53
2023-02-11T02:45:25.495Z,74760.53
2023-02-11T02:46:13.505Z,74754.53
2023-02-11T02:46:48.601Z,74756.53
2023-02-11T02:47:20.946Z,74754.53
2023-02-11T02:47:55.847Z,74754.53
2023-02-11T02:48:30.309Z,74750.53
2023-02-11T02:49:05.323Z,74758.53
2023-02-11T02:49:37.544Z,74754.53
2023-02-11T02:50:10.299Z,74754.53
2023-02-11T02:50:42.654Z,74750.53
2023-02-11T02:51:44.002Z,74748.53
2023-02-11T02:52:21.216Z,74752.53
2023-02-11T02:53:01.160Z,74752.53
2023-02-11T02:53:44.502Z,74760.53
2023-02-11T02:54:55.507Z,74750.53
2023-02-11T02:55:41.639Z,74752.53
2023-02-11T02:56:15.396Z,74752.53
2023-02-11T02:56:50.679Z,74754.53
2023-02-11T02:57:34.305Z,74758.53
2023-02-11T02:58:31.496Z,74756.53
2023-02-11T02:59:14.452Z,74760.53
2023-02-11T02:59:58.066Z,74760.53
2023-02-11T03:00:35.028Z,74758.53
2023-02-11T03:01:14.164Z,74758.53
2023-02-11T03:01:54.396Z,74766.53
2023-02-11T03:02:29.530Z,74768.50
2023-02-11T03:03:18.428Z,74766.53
2023-02-11T03:03:59.125Z,74758.53
2023-02-11T03:04:37.364Z,74760.53
2023-02-11T03:05:16.994Z,74764.53
2023-02-11T03:05:54.024Z,74762.53
2023-02-11T03:06:31.878Z,74774.50
2023-02-11T03:07:10.666Z,74770.50
2023-02-11T03:07:46.656Z,74768.50
2023-02-11T03:08:25.652Z,74766.53
2023-02-11T03:09:04.353Z,74766.53
2023-02-11T03:09:39.715Z,74764.53
2023-02-11T03:10:15.761Z,74764.53
2023-02-11T03:10:53.400Z,74754.53
2023-02-11T03:11:26.476Z,74758.53
2023-02-11T03:11:59.503Z,74762.53
2023-02-11T03:12:34.648Z,74766.53
2023-02-11T03:13:08.187Z,74762.53
2023-02-11T03:13:41.459Z,74760.53
2023-02-11T03:14:16.122Z,74758.53
2023-02-11T03:14:52.861Z,74758.53
2023-02-11T03:15:27.690Z,74758.53
2023-02-11T03:16:02.971Z,74758.53
2023-02-11T03:16:39.415Z,74764.53
2023-02-11T03:17:11.937Z,74756.53
2023-02-11T03:17:48.351Z,74760.53
2023-02-11T03:18:27.985Z,74760.53
2023-02-11T03:19:05.499Z,74758.53
2023-02-11T03:19:39.832Z,74762.53
2023-02-11T03:20:17.236Z,74758.53
2023-02-11T03:20:51.483Z,74752.53
2023-02-11T03:21:24.920Z,74756.53
2023-02-11T03:22:00.270Z,74758.53
2023-02-11T03:22:35.676Z,74758.53
2023-02-11T03:23:12.269Z,74758.53
2023-02-11T03:23:51.015Z,74768.50
2023-02-11T03:24:27.968Z,74764.53
2023-02-11T03:25:01.196Z,74766.53
2023-02-11T03:25:40.314Z,74766.53
2023-02-11T03:26:18.151Z,74766.53
2023-02-11T03:26:52.593Z,74774.50
2023-02-11T03:27:30.995Z,74770.50
2023-02-11T03:28:08.631Z,74766.53
2023-02-11T03:28:43.561Z,74764.53
2023-02-11T03:29:21.657Z,74768.50
2023-02-11T03:29:57.016Z,74758.53
2023-02-11T03:30:32.086Z,74756.53
2023-02-11T03:31:13.841Z,74762.53
2023-02-11T03:31:52.695Z,74762.53
2023-02-11T03:32:28.097Z,74758.53
2023-02-11T03:33:08.945Z,74758.53
2023-02-11T03:33:51.255Z,74754.53
2023-02-11T03:34:27.596Z,74754.53
2023-02-11T03:35:04.756Z,74760.53
2023-02-11T03:35:40.086Z,74758.53
2023-02-11T03:36:16.003Z,74758.53
2023-02-11T03:36:51.978Z,74750.53
2023-02-11T03:37:30.601Z,74758.53
2023-02-11T03:38:05.970Z,74752.53
2023-02-11T03:38:41.558Z,74754.53
2023-02-11T03:39:19.417Z,74750.53
2023-02-11T03:39:54.148Z,74758.53
2023-02-11T03:40:29.735Z,74758.53
2023-02-11T03:41:05.672Z,74754.53
2023-02-11T03:41:38.717Z,74762.53
2023-02-11T03:42:12.224Z,74760.53
2023-02-11T03:42:49.789Z,74762.53
2023-02-11T03:43:24.363Z,74756.53
2023-02-11T03:43:57.614Z,74762.53
2023-02-11T03:44:35.844Z,74764.53
2023-02-11T03:45:11.811Z,74762.53
2023-02-11T03:45:47.542Z,74762.53
2023-02-11T03:46:23.023Z,74774.50
2023-02-11T03:46:56.311Z,74762.53
2023-02-11T03:47:32.584Z,74762.53
2023-02-11T03:48:13.127Z,74766.53
2023-02-11T03:48:52.877Z,74758.53
2023-02-11T03:49:27.969Z,74750.53
2023-02-11T03:50:03.765Z,74770.50
2023-02-11T03:50:36.856Z,74764.53
2023-02-11T03:51:11.638Z,74756.53
2023-02-11T03:51:47.167Z,74760.53
2023-02-11T03:52:20.596Z,74760.53
2023-02-11T03:52:54.027Z,74754.53
2023-02-11T03:53:28.860Z,74760.53
2023-02-11T03:54:03.592Z,74758.53
2023-02-11T03:54:35.873Z,74756.53
2023-02-11T03:55:13.989Z,74758.53
2023-02-11T03:55:48.549Z,74758.53
2023-02-11T03:56:22.460Z,74762.53
2023-02-11T03:56:56.720Z,74766.53
2023-02-11T03:57:34.328Z,74758.53
2023-02-11T03:58:06.889Z,74768.50
2023-02-11T03:58:39.110Z,74762.53
2023-02-11T03:59:13.926Z,74764.53
2023-02-11T03:59:54.233Z,74764.53
2023-02-11T04:00:33.778Z,74766.53
2023-02-11T04:01:09.942Z,74770.50
2023-02-11T04:01:42.234Z,74770.50
2023-02-11T04:02:17.073Z,74770.50
2023-02-11T04:02:49.311Z,74766.53
2023-02-11T04:03:24.225Z,74774.50
2023-02-11T04:03:59.070Z,74778.50
2023-02-11T04:04:31.280Z,74778.50
2023-02-11T04:05:06.857Z,74782.50
2023-02-11T04:05:39.582Z,74786.50
2023-02-11T04:06:11.949Z,74770.50
2023-02-11T04:06:46.803Z,74774.50
2023-02-11T04:07:19.036Z,74774.50
2023-02-11T04:07:51.270Z,74770.50
2023-02-11T04:08:26.094Z,74774.50
2023-02-11T04:08:58.362Z,74772.50
2023-02-11T04:09:30.568Z,74778.50
2023-02-11T04:10:05.423Z,74778.50
2023-02-11T04:10:37.824Z,74782.50
2023-02-11T04:11:10.143Z,74778.50
2023-02-11T04:11:44.980Z,74780.50
2023-02-11T04:12:17.290Z,74784.50
2023-02-11T04:12:49.653Z,74780.50
2023-02-11T04:13:24.924Z,74776.50
2023-02-11T04:13:57.148Z,74782.50
2023-02-11T04:14:29.372Z,74778.50
2023-02-11T04:15:01.598Z,74778.50
2023-02-11T04:15:36.492Z,74778.50
2023-02-11T04:16:08.850Z,74782.50
2023-02-11T04:16:41.182Z,74782.50
2023-02-11T04:17:16.448Z,74782.50
2023-02-11T04:17:48.712Z,74782.50
2023-02-11T04:18:20.951Z,74790.47
2023-02-11T04:18:55.778Z,74786.50
2023-02-11T04:19:30.598Z,74786.50
2023-02-11T04:20:02.931Z,74788.47
2023-02-11T04:20:37.765Z,74786.50
2023-02-11T04:21:10.036Z,74792.47
2023-02-11T04:21:42.245Z,74790.47
2023-02-11T04:22:14.647Z,74786.50
2023-02-11T04:22:49.467Z,74790.47
2023-02-11T04:23:21.708Z,74790.47
2023-02-11T04:23:53.954Z,74790.47
2023-02-11T04:24:28.821Z,74786.50
2023-02-11T04:25:01.044Z,74794.47
2023-02-11T04:25:33.316Z,74792.47
2023-02-11T04:26:08.609Z,74798.47
2023-02-11T04:26:40.823Z,74792.47
2023-02-11T04:27:13.090Z,74796.47
2023-02-11T04:27:47.900Z,74792.47
2023-02-11T04:28:20.286Z,74790.47
2023-02-11T04:28:52.544Z,74794.47
2023-02-11T04:29:28.309Z,74800.47
2023-02-11T04:30:00.535Z,74802.47
2023-02-11T04:30:32.761Z,74808.44
2023-02-11T04:31:08.022Z,74802.47
2023-02-11T04:31:40.297Z,74802.47
2023-02-11T04:32:12.964Z,74806.47
2023-02-11T04:32:47.791Z,74802.47
2023-02-11T04:33:20.004Z,74806.47
2023-02-11T04:33:52.295Z,74802.47
2023-02-11T04:34:27.352Z,74802.47
2023-02-11T04:35:02.939Z,74810.44
2023-02-11T04:35:35.185Z,74806.47
2023-02-11T04:36:11.018Z,74808.44
2023-02-11T04:36:45.873Z,74796.47
2023-02-11T04:37:18.280Z,74802.47
2023-02-11T04:37:50.547Z,74808.44
2023-02-11T04:38:25.883Z,74802.47
2023-02-11T04:38:58.120Z,74810.44
2023-02-11T04:39:30.384Z,74810.44
2023-02-11T04:40:05.244Z,74802.47
2023-02-11T04:40:37.603Z,74810.44
2023-02-11T04:41:09.852Z,74806.47
2023-02-11T04:41:44.735Z,74808.44
2023-02-11T04:42:16.963Z,74806.47
2023-02-11T04:42:49.171Z,74800.47
2023-02-11T04:43:23.991Z,74806.47
2023-02-11T04:43:56.229Z,74806.47
2023-02-11T04:44:28.612Z,74806.47
2023-02-11T04:45:03.478Z,74798.47
2023-02-11T04:45:35.827Z,74802.47
2023-02-11T04:46:08.158Z,74800.47
2023-02-11T04:46:40.442Z,74798.47
2023-02-11T04:47:15.563Z,74796.47
2023-02-11T04:47:47.775Z,74794.47
2023-02-11T04:48:20.003Z,74794.47
2023-02-11T04:48:55.107Z,74796.47
2023-02-11T04:49:27.324Z,74794.47
2023-02-11T04:50:02.196Z,74786.50
2023-02-11T04:50:37.033Z,74792.47
2023-02-11T04:51:09.302Z,74788.47
2023-02-11T04:51:41.550Z,74790.47
2023-02-11T04:52:16.435Z,74786.50
2023-02-11T04:52:48.667Z,74782.50
2023-02-11T04:53:20.944Z,74790.47
2023-02-11T04:53:55.795Z,74792.47
2023-02-11T04:54:28.048Z,74798.47
2023-02-11T04:55:00.280Z,74790.47
2023-02-11T04:55:35.150Z,74786.50
2023-02-11T04:56:07.759Z,74786.50
2023-02-11T04:56:40.137Z,74790.47
2023-02-11T04:57:15.074Z,74790.47
2023-02-11T04:57:47.463Z,74786.50
2023-02-11T04:58:20.255Z,74784.50
2023-02-11T04:58:55.067Z,74792.47
2023-02-11T04:59:27.632Z,74792.47
2023-02-11T04:59:59.859Z,74782.50
2023-02-11T05:00:35.686Z,74792.47
2023-02-11T05:01:08.860Z,74778.50
2023-02-11T05:01:41.299Z,74786.50
2023-02-11T05:02:16.132Z,74782.50
2023-02-11T05:02:48.348Z,74782.50
2023-02-11T05:03:20.589Z,74782.50
2023-02-11T05:03:55.418Z,74782.50
2023-02-11T05:04:27.931Z,74776.50
2023-02-11T05:05:02.843Z,74782.50
2023-02-11T05:05:37.716Z,74778.50
2023-02-11T05:06:10.417Z,74782.50
2023-02-11T05:06:42.661Z,74776.50
2023-02-11T05:07:17.499Z,74774.50
2023-02-11T05:07:49.728Z,74778.50
2023-02-11T05:08:22.055Z,74778.50
2023-02-11T05:08:57.002Z,74782.50
2023-02-11T05:09:29.386Z,74784.50
2023-02-11T05:10:01.669Z,74780.50
2023-02-11T05:10:34.290Z,74782.50
2023-02-11T05:11:09.500Z,74780.50
2023-02-11T05:11:41.774Z,74778.50
2023-02-11T05:12:14.004Z,74778.50
2023-02-11T05:12:50.915Z,74786.50
2023-02-11T05:13:23.317Z,74778.50
2023-02-11T05:13:55.561Z,74782.50
2023-02-11T05:14:30.471Z,74786.50
2023-02-11T05:15:02.704Z,74784.50
2023-02-11T05:15:34.966Z,74790.47
2023-02-11T05:16:09.946Z,74786.50
2023-02-11T05:16:42.299Z,74788.47
2023-02-11T05:17:14.547Z,74780.50
2023-02-11T05:17:49.880Z,74790.47
2023-02-11T05:18:22.427Z,74786.50
2023-02-11T05:18:55.776Z,74786.50
2023-02-11T05:19:32.067Z,74786.50
2023-02-11T05:20:07.904Z,74794.47
2023-02-11T05:20:40.120Z,74790.47
2023-02-11T05:21:16.951Z,74786.50
2023-02-11T05:22:01.770Z,74782.50
2023-02-11T05:22:37.268Z,74782.50
2023-02-11T05:23:09.525Z,74786.50
2023-02-11T05:23:42.298Z,74782.50
2023-02-11T05:24:17.138Z,74784.50
2023-02-11T05:24:50.097Z,74778.50
2023-02-11T05:25:22.333Z,74786.50
2023-02-11T05:25:57.145Z,74782.50
2023-02-11T05:26:29.401Z,74782.50
2023-02-11T05:27:01.987Z,74782.50
2023-02-11T05:27:34.250Z,74782.50
2023-02-11T05:28:09.411Z,74786.50
2023-02-11T05:28:41.964Z,74786.50
2023-02-11T05:29:14.275Z,74780.50
2023-02-11T05:29:49.136Z,74780.50
2023-02-11T05:30:21.570Z,74778.50
2023-02-11T05:30:53.824Z,74778.50
2023-02-11T05:31:28.678Z,74778.50
2023-02-11T05:32:01.009Z,74778.50
2023-02-11T05:32:33.600Z,74782.50
2023-02-11T05:33:08.447Z,74782.50
2023-02-11T05:33:40.739Z,74778.50
2023-02-11T05:34:12.960Z,74772.50
2023-02-11T05:34:47.943Z,74774.50
2023-02-11T05:35:22.853Z,74770.50
2023-02-11T05:35:59.155Z,74774.50
2023-02-11T05:36:34.172Z,74774.50
2023-02-11T05:37:06.833Z,74772.50
2023-02-11T05:37:39.295Z,74772.50
2023-02-11T05:38:14.151Z,74770.50
2023-02-11T05:38:46.469Z,74776.50
2023-02-11T05:39:18.711Z,74772.50
2023-02-11T05:39:53.553Z,74774.50
2023-02-11T05:40:25.781Z,74776.50
2023-02-11T05:40:58.073Z,74772.50
2023-02-11T05:41:33.003Z,74778.50
2023-02-11T05:42:05.700Z,74766.53
2023-02-11T05:42:38.200Z,74768.50
2023-02-11T05:43:13.036Z,74762.53
2023-02-11T05:43:45.285Z,74758.53
2023-02-11T05:44:17.531Z,74760.53
2023-02-11T05:44:52.402Z,74762.53
2023-02-11T05:45:24.661Z,74756.53
2023-02-11T05:45:57.269Z,74758.53
2023-02-11T05:46:32.207Z,74754.53
2023-02-11T05:47:04.637Z,74754.53
2023-02-11T05:47:36.851Z,74750.53
2023-02-11T05:48:11.683Z,74744.56
2023-02-11T05:48:44.128Z,74734.56
2023-02-11T05:49:17.212Z,74742.56
2023-02-11T05:49:52.041Z,74742.56
2023-02-11T05:50:26.968Z,74742.56
2023-02-11T05:50:59.262Z,74740.56
2023-02-11T05:51:31.500Z,74744.56
2023-02-11T05:52:06.976Z,74734.56
2023-02-11T05:52:39.241Z,74742.56
2023-02-11T05:53:11.783Z,74736.56
2023-02-11T05:53:46.703Z,74738.56
2023-02-11T05:54:18.914Z,74738.56
2023-02-11T05:54:51.490Z,74738.56
2023-02-11T05:55:26.372Z,74738.56
2023-02-11T05:55:58.646Z,74736.56
2023-02-11T05:56:31.009Z,74738.56
2023-02-11T05:57:05.910Z,74742.56
2023-02-11T05:57:38.157Z,74734.56
2023-02-11T05:58:10.458Z,74732.56
2023-02-11T05:58:45.349Z,74736.56
2023-02-11T05:59:17.610Z,74728.56
2023-02-11T05:59:49.886Z,74730.56
2023-02-11T06:00:25.112Z,74730.56
2023-02-11T06:00:57.351Z,74734.56
2023-02-11T06:01:29.579Z,74734.56
2023-02-11T06:02:04.796Z,74734.56
2023-02-11T06:02:37.077Z,74734.56
2023-02-11T06:03:09.312Z,74738.56
2023-02-11T06:03:44.170Z,74746.56
2023-02-11T06:04:16.533Z,74742.56
2023-02-11T06:04:48.791Z,74740.56
2023-02-11T06:05:23.608Z,74744.56
2023-02-11T06:05:58.452Z,74750.53
2023-02-11T06:06:30.887Z,74742.56
2023-02-11T06:07:05.943Z,74742.56
2023-02-11T06:07:38.172Z,74750.53
2023-02-11T06:08:10.470Z,74748.53
2023-02-11T06:08:45.503Z,74748.53
2023-02-11T06:09:17.724Z,74754.53
2023-02-11T06:09:49.955Z,74750.53
2023-02-11T06:10:24.944Z,74762.53
2023-02-11T06:10:57.200Z,74752.53
2023-02-11T06:11:29.490Z,74754.53
2023-02-11T06:12:04.313Z,74756.53
2023-02-11T06:12:36.982Z,74754.53
2023-02-11T06:13:09.366Z,74746.56
2023-02-11T06:13:44.246Z,74754.53
2023-02-11T06:14:16.477Z,74758.53
2023-02-11T06:14:48.724Z,74754.53
2023-02-11T06:15:23.650Z,74750.53
2023-02-11T06:15:56.826Z,74752.53
2023-02-11T06:16:29.180Z,74742.56
2023-02-11T06:17:01.544Z,74754.53
2023-02-11T06:17:37.485Z,74750.53
2023-02-11T06:18:10.626Z,74754.53
2023-02-11T06:18:43.113Z,74748.53
2023-02-11T06:19:17.960Z,74748.53
2023-02-11T06:19:50.237Z,74744.56
2023-02-11T06:20:22.568Z,74738.56
2023-02-11T06:21:00.264Z,74734.56
2023-02-11T06:21:43.546Z,74734.56
2023-02-11T06:22:22.031Z,74738.56
2023-02-11T06:22:54.271Z,74734.56
2023-02-11T06:23:29.913Z,74732.56
2023-02-11T06:24:05.167Z,74742.56
2023-02-11T06:24:59.986Z,74730.56
2023-02-11T06:25:32.706Z,74734.56
2023-02-11T06:26:06.547Z,74734.56
2023-02-11T06:26:38.909Z,74722.59
2023-02-11T06:27:13.782Z,74736.56
2023-02-11T06:27:46.039Z,74734.56
2023-02-11T06:28:18.651Z,74732.56
2023-02-11T06:28:53.492Z,74734.56
2023-02-11T06:29:25.715Z,74728.56
2023-02-11T06:29:57.988Z,74734.56
2023-02-11T06:30:32.799Z,74736.56
2023-02-11T06:31:06.803Z,74738.56
2023-02-11T06:31:39.629Z,74734.56
2023-02-11T06:32:35.705Z,74734.56
2023-02-11T06:33:06.906Z,74730.56
2023-02-11T06:33:41.778Z,74730.56
2023-02-11T06:34:14.021Z,74734.56
2023-02-11T06:34:46.358Z,74726.56
2023-02-11T06:35:21.434Z,74734.56
2023-02-11T06:35:53.708Z,74738.56
2023-02-11T06:36:28.622Z,74738.56
2023-02-11T06:37:03.484Z,74738.56
2023-02-11T06:37:35.711Z,74738.56
2023-02-11T06:38:08.031Z,74738.56
2023-02-11T06:38:42.843Z,74746.56
2023-02-11T06:39:15.143Z,74738.56
2023-02-11T06:39:47.499Z,74734.56
2023-02-11T06:40:22.542Z,74740.56
2023-02-11T06:40:54.788Z,74734.56
2023-02-11T06:41:27.203Z,74742.56
2023-02-11T06:42:02.027Z,74740.56
2023-02-11T06:42:34.703Z,74742.56
2023-02-11T06:43:06.935Z,74750.53
2023-02-11T06:43:42.604Z,74744.56
2023-02-11T06:44:14.836Z,74744.56
2023-02-11T06:44:47.052Z,74746.56
2023-02-11T06:45:22.149Z,74750.53
2023-02-11T06:45:54.538Z,74738.56
2023-02-11T06:46:26.839Z,74746.56
2023-02-11T06:47:01.696Z,74754.53
2023-02-11T06:47:33.933Z,74750.53
2023-02-11T06:48:06.362Z,74742.56
2023-02-11T06:48:43.764Z,74738.56
2023-02-11T06:49:17.030Z,74738.56
2023-02-11T06:49:49.278Z,74738.56
2023-02-11T06:50:24.276Z,74742.56
2023-02-11T06:50:56.534Z,74734.56
2023-02-11T06:51:31.340Z,74736.56
2023-02-11T06:52:06.394Z,74734.56
2023-02-11T06:52:38.651Z,74734.56
2023-02-11T06:53:10.902Z,74736.56
2023-02-11T06:53:47.597Z,74734.56
2023-02-11T06:54:19.828Z,74734.56